createdAt,value
2022-09-10T00:02:20.676Z,4.68
2022-09-10T00:04:51.370Z,5.22
2022-09-10T00:07:22.281Z,6.22
2022-09-10T00:09:53.115Z,6.28
2022-09-10T00:12:23.870Z,5.18
2022-09-10T00:14:58.019Z,4.63
2022-09-10T00:17:29.700Z,4.20
2022-09-10T00:20:00.739Z,7.15
2022-09-10T00:22:31.661Z,3.65
2022-09-10T00:25:06.266Z,5.03
2022-09-10T00:27:40.649Z,4.53
2022-09-10T00:30:15.621Z,5.28
2022-09-10T00:32:49.911Z,4.57
2022-09-10T00:35:21.847Z,2.85
2022-09-10T00:37:52.605Z,4.57
2022-09-10T00:40:23.529Z,6.32
2022-09-10T00:42:54.244Z,3.67
2022-09-10T00:45:31.421Z,5.10
2022-09-10T00:48:05.701Z,4.00
2022-09-10T00:50:41.451Z,5.15
2022-09-10T00:53:16.943Z,2.83
2022-09-10T00:55:51.565Z,4.63
2022-09-10T00:58:23.872Z,4.43
2022-09-10T01:01:02.675Z,2.90
2022-09-10T01:03:36.021Z,6.95
2022-09-10T01:06:08.497Z,5.40
2022-09-10T01:08:39.433Z,4.60
2022-09-10T01:11:20.922Z,2.85
2022-09-10T01:14:10.210Z,6.50
2022-09-10T01:16:53.025Z,3.53
2022-09-10T01:19:47.192Z,2.47
2022-09-10T01:22:30.477Z,7.13
2022-09-10T01:25:07.201Z,7.85
2022-09-10T01:27:51.987Z,2.40
2022-09-10T01:30:25.805Z,6.72
2022-09-10T01:33:08.890Z,4.43
2022-09-10T01:35:48.061Z,3.67
2022-09-10T01:38:23.679Z,4.47
2022-09-10T01:40:57.869Z,3.60
2022-09-10T01:43:34.034Z,6.70
2022-09-10T01:46:19.972Z,6.95
2022-09-10T01:49:19.417Z,5.55
2022-09-10T01:52:18.843Z,3.97
2022-09-10T01:55:00.349Z,5.70
2022-09-10T01:57:42.716Z,6.95
2022-09-10T02:00:19.486Z,6.13
2022-09-10T02:02:55.197Z,3.22
2022-09-10T02:05:26.973Z,4.60
2022-09-10T02:08:03.971Z,5.88
2022-09-10T02:10:35.529Z,8.85
2022-09-10T02:13:10.797Z,6.60
2022-09-10T02:16:03.585Z,6.68
2022-09-10T02:18:43.025Z,7.18
2022-09-10T02:21:15.649Z,8.82
2022-09-10T02:23:49.500Z,6.40
2022-09-10T02:26:20.440Z,4.05
2022-09-10T02:28:51.586Z,5.75
2022-09-10T02:31:26.004Z,4.55
2022-09-10T02:33:57.561Z,7.25
2022-09-10T02:36:32.069Z,4.55
2022-09-10T02:39:04.927Z,5.22
2022-09-10T02:41:38.351Z,4.05
2022-09-10T02:44:10.943Z,4.63
2022-09-10T02:46:44.469Z,7.97
2022-09-10T02:49:15.270Z,5.05
2022-09-10T02:51:46.784Z,7.22
2022-09-10T02:54:17.503Z,7.30
2022-09-10T02:56:50.101Z,5.43
2022-09-10T02:59:22.499Z,7.22
2022-09-10T03:01:57.015Z,5.07
2022-09-10T03:04:28.105Z,7.25
2022-09-10T03:06:58.821Z,8.77
2022-09-10T03:09:30.409Z,4.45
2022-09-10T03:12:01.376Z,5.60
2022-09-10T03:14:32.122Z,7.78
2022-09-10T03:17:07.495Z,4.25
2022-09-10T03:19:40.294Z,3.33
2022-09-10T03:22:11.392Z,3.45
2022-09-10T03:24:43.387Z,5.88
2022-09-10T03:27:14.224Z,5.05
2022-09-10T03:29:45.530Z,6.03
2022-09-10T03:32:21.214Z,5.90
2022-09-10T03:34:52.366Z,5.03
2022-09-10T03:37:24.391Z,7.82
2022-09-10T03:39:55.486Z,4.72
2022-09-10T03:42:27.379Z,4.75
2022-09-10T03:44:58.134Z,6.03
2022-09-10T03:47:31.564Z,5.28
2022-09-10T03:50:06.076Z,6.57
2022-09-10T03:52:36.816Z,3.03
2022-09-10T03:55:08.218Z,7.60
2022-09-10T03:57:39.167Z,4.15
2022-09-10T04:00:12.103Z,5.07
2022-09-10T04:02:48.657Z,6.63
2022-09-10T04:05:19.719Z,7.28
2022-09-10T04:07:50.435Z,5.15
2022-09-10T04:10:21.718Z,9.00
2022-09-10T04:12:53.682Z,7.80
2022-09-10T04:15:25.162Z,4.68
2022-09-10T04:18:00.923Z,6.63
2022-09-10T04:20:31.724Z,7.78
2022-09-10T04:23:09.552Z,7.22
2022-09-10T04:25:42.385Z,7.97
2022-09-10T04:28:13.433Z,5.85
2022-09-10T04:30:44.829Z,8.43
2022-09-10T04:33:19.168Z,5.53
2022-09-10T04:35:51.704Z,7.72
2022-09-10T04:38:22.513Z,8.82
2022-09-10T04:40:55.297Z,7.50
2022-09-10T04:43:27.623Z,5.47
2022-09-10T04:45:59.697Z,7.68
2022-09-10T04:48:33.666Z,5.93
2022-09-10T04:51:19.896Z,3.80
2022-09-10T04:53:52.766Z,5.00
2022-09-10T04:56:26.832Z,6.57
2022-09-10T04:58:58.031Z,7.22
2022-09-10T05:01:29.975Z,5.65
2022-09-10T05:04:03.382Z,4.40
2022-09-10T05:06:34.857Z,6.88
2022-09-10T05:09:08.130Z,7.20
2022-09-10T05:11:39.325Z,4.70
2022-09-10T05:14:10.750Z,7.93
2022-09-10T05:16:41.865Z,7.35
2022-09-10T05:19:18.148Z,6.55
2022-09-10T05:22:15.401Z,5.85
2022-09-10T05:24:46.958Z,7.85
2022-09-10T05:27:18.548Z,3.30
2022-09-10T05:29:50.203Z,3.67
2022-09-10T05:32:21.797Z,6.00
2022-09-10T05:34:55.318Z,6.90
2022-09-10T05:37:27.315Z,6.80
2022-09-10T05:39:58.387Z,7.00
2022-09-10T05:42:29.361Z,2.63
2022-09-10T05:45:02.707Z,4.38
2022-09-10T05:47:35.729Z,5.85
2022-09-10T05:50:11.560Z,6.38
2022-09-10T05:52:42.433Z,8.60
2022-09-10T05:55:15.141Z,5.47
2022-09-10T05:57:46.100Z,7.53
2022-09-10T06:00:19.624Z,6.15
2022-09-10T06:03:00.534Z,8.23
2022-09-10T06:05:38.799Z,5.75
2022-09-10T06:08:09.957Z,5.38
2022-09-10T06:10:45.954Z,4.43
2022-09-10T06:13:16.707Z,5.45
2022-09-10T06:15:47.785Z,5.68
2022-09-10T06:18:19.452Z,6.75
2022-09-10T06:21:04.187Z,7.28
2022-09-10T06:23:36.554Z,4.72
2022-09-10T06:26:09.707Z,8.77
2022-09-10T06:28:41.423Z,6.50
2022-09-10T06:31:17.193Z,8.60
2022-09-10T06:33:49.289Z,7.07
2022-09-10T06:36:28.841Z,6.38
2022-09-10T06:39:00.908Z,8.43
2022-09-10T06:41:32.017Z,7.57
2022-09-10T06:44:09.104Z,5.93
2022-09-10T06:49:44.230Z,10.63
2022-09-10T06:52:18.131Z,6.53
2022-09-10T06:54:52.683Z,4.90
2022-09-10T06:57:34.699Z,5.93
2022-09-10T07:00:08.229Z,7.20
2022-09-10T07:02:41.266Z,7.53
2022-09-10T07:05:14.842Z,6.55
2022-09-10T07:07:50.176Z,2.47
2022-09-10T07:10:21.842Z,3.33
2022-09-10T07:12:53.256Z,2.05
2022-09-10T07:15:26.233Z,4.90
2022-09-10T07:17:57.539Z,6.10
2022-09-10T07:20:30.624Z,4.45
2022-09-10T07:23:05.254Z,7.20
2022-09-10T07:25:37.814Z,6.65
2022-09-10T07:28:13.555Z,5.78
2022-09-10T07:30:48.655Z,3.90
2022-09-10T07:33:21.339Z,4.57
2022-09-10T07:35:53.268Z,5.03
2022-09-10T07:38:29.023Z,4.18
2022-09-10T07:41:03.575Z,6.03
2022-09-10T07:43:35.651Z,2.65
2022-09-10T07:46:07.030Z,7.05
2022-09-10T07:48:40.206Z,5.25
2022-09-10T07:51:14.295Z,6.38
2022-09-10T07:53:50.810Z,3.70
2022-09-10T07:56:23.494Z,1.98
2022-09-10T07:58:57.958Z,6.72
2022-09-10T08:01:33.248Z,2.83
2022-09-10T08:04:05.687Z,8.43
2022-09-10T08:06:39.387Z,3.55
2022-09-10T08:09:15.756Z,4.20
2022-09-10T08:11:55.461Z,5.13
2022-09-10T08:14:28.237Z,4.50
2022-09-10T08:17:01.600Z,2.83
2022-09-10T08:19:34.979Z,3.50
2022-09-10T08:22:10.255Z,5.03
2022-09-10T08:24:50.802Z,6.78
2022-09-10T08:27:22.267Z,4.72
2022-09-10T08:29:55.445Z,5.43
2022-09-10T08:32:28.684Z,4.45
2022-09-10T08:35:01.097Z,8.20
2022-09-10T08:37:33.687Z,4.53
2022-09-10T08:40:12.154Z,5.35
2022-09-10T08:42:46.954Z,5.07
2022-09-10T08:45:24.103Z,3.45
2022-09-10T08:48:04.516Z,2.08
2022-09-10T08:50:41.254Z,1.90
2022-09-10T08:53:26.376Z,4.28
2022-09-10T08:56:07.536Z,2.28
2022-09-10T08:58:45.583Z,2.60
2022-09-10T09:01:27.533Z,3.20
2022-09-10T09:04:04.917Z,5.65
2022-09-10T09:06:45.112Z,6.57
2022-09-10T09:09:17.379Z,7.32
2022-09-10T09:11:58.203Z,4.38
2022-09-10T09:14:48.314Z,3.75
2022-09-10T09:17:52.443Z,6.97
2022-09-10T09:20:36.897Z,2.22
2022-09-10T09:23:17.912Z,3.50
2022-09-10T09:25:53.214Z,3.35
2022-09-10T09:28:39.386Z,3.00
2022-09-10T09:31:17.765Z,6.70
2022-09-10T09:33:54.827Z,2.50
2022-09-10T09:36:33.281Z,4.60
2022-09-10T09:39:16.289Z,5.85
2022-09-10T09:41:59.303Z,6.15
2022-09-10T09:44:39.716Z,2.85
2022-09-10T09:47:11.996Z,4.43
2022-09-10T09:49:46.257Z,2.88
2022-09-10T09:52:23.459Z,6.72
2022-09-10T09:55:13.864Z,4.43
2022-09-10T09:57:47.465Z,4.28
2022-09-10T10:00:39.845Z,5.15
2022-09-10T10:03:17.246Z,3.72
2022-09-10T10:05:48.334Z,3.75
2022-09-10T10:08:34.599Z,3.25
2022-09-10T10:11:05.833Z,5.38
2022-09-10T10:13:41.907Z,4.43
2022-09-10T10:16:27.047Z,3.97
2022-09-10T10:18:58.201Z,4.78
2022-09-10T10:21:35.039Z,6.47
2022-09-10T10:26:39.915Z,5.75
2022-09-10T10:29:20.832Z,4.85
2022-09-10T10:31:56.377Z,4.43
2022-09-10T10:34:54.171Z,3.25
2022-09-10T10:37:34.903Z,4.88
2022-09-10T10:40:21.904Z,5.05
2022-09-10T10:43:00.453Z,4.38
2022-09-10T10:45:40.473Z,6.38
2022-09-10T10:48:23.830Z,6.13
2022-09-10T10:51:02.070Z,3.35
2022-09-10T10:53:48.691Z,3.88
2022-09-10T10:56:29.157Z,5.32
2022-09-10T10:59:26.974Z,3.58
2022-09-10T11:02:04.141Z,5.50
2022-09-10T11:04:45.723Z,3.63
2022-09-10T11:07:22.011Z,3.83
2022-09-10T11:10:00.396Z,5.30
2022-09-10T11:12:37.272Z,2.55
2022-09-10T11:15:24.321Z,3.93
2022-09-10T11:17:59.712Z,4.28
2022-09-10T11:20:39.331Z,4.07
2022-09-10T11:23:21.880Z,4.65
2022-09-10T11:25:59.987Z,2.28
2022-09-10T11:28:37.759Z,5.15
2022-09-10T11:31:16.067Z,2.15
2022-09-10T11:33:54.924Z,3.58
2022-09-10T11:36:35.339Z,3.58
2022-09-10T11:39:20.929Z,2.65
2022-09-10T11:41:55.073Z,2.53
2022-09-10T11:44:45.907Z,1.95
2022-09-10T11:47:21.899Z,2.88
2022-09-10T11:49:58.437Z,2.90
2022-09-10T11:52:35.258Z,2.65
2022-09-10T11:57:49.051Z,2.53
2022-09-10T12:00:21.120Z,4.70
2022-09-10T12:03:21.228Z,2.53
2022-09-10T12:06:02.186Z,3.17
2022-09-10T12:08:50.546Z,3.20
2022-09-10T12:11:30.683Z,3.50
2022-09-10T12:14:03.376Z,3.42
2022-09-10T12:16:39.290Z,3.92
2022-09-10T12:19:18.248Z,3.07
2022-09-10T12:21:54.168Z,2.35
2022-09-10T12:24:42.732Z,1.60
2022-09-10T12:27:22.490Z,2.10
2022-09-10T12:29:54.303Z,4.72
2022-09-10T12:32:34.364Z,4.47
2022-09-10T12:35:50.350Z,2.80
2022-09-10T12:38:52.957Z,2.65
2022-09-10T12:41:53.909Z,3.20
2022-09-10T12:44:49.011Z,2.13
2022-09-10T12:47:54.772Z,1.63
2022-09-10T12:50:38.767Z,2.53
2022-09-10T12:53:31.686Z,2.05
2022-09-10T12:56:07.791Z,2.92
2022-09-10T12:59:02.688Z,1.53
2022-09-10T13:01:44.619Z,4.53
2022-09-10T13:04:28.756Z,1.85
2022-09-10T13:07:02.541Z,3.83
2022-09-10T13:09:37.165Z,2.72
2022-09-10T13:12:20.438Z,2.10
2022-09-10T13:14:54.635Z,0.88
2022-09-10T13:18:16.219Z,2.33
2022-09-10T13:20:47.458Z,2.10
2022-09-10T13:23:25.441Z,3.67
2022-09-10T13:26:17.226Z,2.28
2022-09-10T13:29:11.768Z,1.45
2022-09-10T13:31:47.849Z,2.45
2022-09-10T13:34:48.949Z,1.83
2022-09-10T13:37:44.818Z,3.30
2022-09-10T13:40:45.055Z,2.05
2022-09-10T13:43:44.901Z,2.30
2022-09-10T13:46:24.708Z,1.52
2022-09-10T13:49:03.595Z,2.38
2022-09-10T13:51:40.247Z,2.17
2022-09-10T13:54:31.846Z,2.22
2022-09-10T13:57:07.849Z,2.85
2022-09-10T13:59:41.389Z,1.92
2022-09-10T14:02:12.579Z,2.60
2022-09-10T14:04:45.260Z,2.05
2022-09-10T14:07:20.531Z,2.20
2022-09-10T14:09:59.081Z,1.73
2022-09-10T14:12:32.968Z,3.55
2022-09-10T14:15:07.985Z,2.25
2022-09-10T14:17:45.711Z,2.10
2022-09-10T14:20:24.684Z,2.00
2022-09-10T14:23:02.174Z,1.63
2022-09-10T14:25:39.532Z,1.20
2022-09-10T14:28:31.867Z,1.42
2022-09-10T14:31:26.899Z,2.97
2022-09-10T14:33:59.819Z,2.50
2022-09-10T14:36:37.809Z,2.17
2022-09-10T14:39:18.576Z,0.98
2022-09-10T14:41:52.923Z,2.38
2022-09-10T14:44:33.015Z,2.72
2022-09-10T14:47:15.752Z,2.28
2022-09-10T14:49:47.899Z,1.98
2022-09-10T14:52:18.661Z,4.53
2022-09-10T14:54:49.425Z,0.88
2022-09-10T14:57:23.766Z,1.83
2022-09-10T14:59:57.314Z,2.22
2022-09-10T15:02:30.435Z,1.38
2022-09-10T15:05:01.280Z,1.40
2022-09-10T15:07:32.086Z,1.90
2022-09-10T15:10:03.214Z,2.25
2022-09-10T15:12:37.432Z,1.38
2022-09-10T15:15:09.245Z,1.75
2022-09-10T15:17:41.416Z,2.60
2022-09-10T15:20:17.199Z,1.30
2022-09-10T15:22:48.665Z,1.85
2022-09-10T15:25:37.946Z,1.30
2022-09-10T15:28:12.507Z,2.72
2022-09-10T15:30:43.731Z,1.38
2022-09-10T15:33:17.403Z,1.10
2022-09-10T15:35:49.120Z,1.63
2022-09-10T15:38:21.447Z,1.05
2022-09-10T15:40:54.568Z,0.90
2022-09-10T15:43:28.510Z,1.98
2022-09-10T15:46:04.539Z,1.65
2022-09-10T15:48:36.801Z,3.43
2022-09-10T15:51:10.757Z,1.92
2022-09-10T15:53:43.279Z,2.63
2022-09-10T15:56:14.841Z,2.03
2022-09-10T15:58:52.098Z,2.47
2022-09-10T16:01:23.260Z,0.77
2022-09-10T16:03:56.165Z,1.88
2022-09-10T16:06:28.777Z,2.85
2022-09-10T16:09:02.213Z,1.85
2022-09-10T16:11:34.096Z,0.93
2022-09-10T16:14:10.247Z,1.05
2022-09-10T16:16:41.653Z,2.55
2022-09-10T16:19:15.903Z,1.60
2022-09-10T16:21:47.222Z,1.70
2022-09-10T16:24:18.261Z,2.88
2022-09-10T16:26:49.429Z,0.75
2022-09-10T16:29:23.461Z,2.72
2022-09-10T16:31:56.587Z,2.20
2022-09-10T16:34:27.973Z,1.40
2022-09-10T16:36:59.883Z,1.20
2022-09-10T16:39:30.812Z,1.83
2022-09-10T16:42:02.461Z,2.28
2022-09-10T16:44:36.559Z,2.85
2022-09-10T16:47:07.919Z,1.95
2022-09-10T16:49:38.729Z,3.08
2022-09-10T16:52:11.824Z,1.42
2022-09-10T16:54:43.299Z,1.55
2022-09-10T16:57:14.519Z,2.95
2022-09-10T16:59:48.708Z,0.63
2022-09-10T17:02:19.575Z,1.77
2022-09-10T17:04:50.401Z,1.08
2022-09-10T17:07:21.319Z,2.65
2022-09-10T17:09:52.327Z,1.10
2022-09-10T17:12:23.153Z,3.35
2022-09-10T17:14:57.210Z,1.13
2022-09-10T17:17:28.448Z,1.60
2022-09-10T17:19:59.621Z,2.00
2022-09-10T17:22:30.713Z,2.80
2022-09-10T17:25:01.550Z,1.60
2022-09-10T17:27:33.412Z,2.17
2022-09-10T17:30:08.294Z,1.77
2022-09-10T17:32:39.196Z,2.72
2022-09-10T17:35:11.742Z,2.35
2022-09-10T17:37:42.947Z,1.63
2022-09-10T17:40:15.136Z,1.38
2022-09-10T17:42:46.729Z,2.08
2022-09-10T17:45:21.742Z,0.77
2022-09-10T17:47:52.645Z,2.40
2022-09-10T17:50:23.710Z,2.33
2022-09-10T17:52:55.363Z,1.63
2022-09-10T17:55:30.486Z,1.00
2022-09-10T17:58:03.823Z,2.08
2022-09-10T18:00:37.420Z,1.35
2022-09-10T18:03:10.132Z,1.08
2022-09-10T18:05:42.173Z,0.70
2022-09-10T18:08:14.176Z,1.02
2022-09-10T18:10:45.811Z,1.83
2022-09-10T18:13:17.016Z,2.92
2022-09-10T18:15:50.947Z,1.80
2022-09-10T18:18:22.688Z,1.33
2022-09-10T18:20:54.110Z,3.60
2022-09-10T18:23:25.668Z,1.48
2022-09-10T18:25:56.678Z,1.80
2022-09-10T18:28:27.812Z,2.25
2022-09-10T18:31:06.339Z,5.38
2022-09-10T18:33:38.977Z,3.60
2022-09-10T18:36:17.265Z,5.60
2022-09-10T18:38:48.497Z,3.70
2022-09-10T18:41:25.283Z,1.75
2022-09-10T18:46:32.547Z,2.10
2022-09-10T18:49:04.874Z,4.57
2022-09-10T18:51:36.624Z,2.58
2022-09-10T18:54:08.109Z,1.80
2022-09-10T18:56:40.682Z,2.22
2022-09-10T18:59:15.405Z,4.07
2022-09-10T19:01:50.283Z,2.58
2022-09-10T19:04:23.980Z,2.75
2022-09-10T19:06:55.545Z,2.85
2022-09-10T19:09:28.132Z,2.40
2022-09-10T19:12:00.610Z,5.63
2022-09-10T19:14:36.017Z,6.13
2022-09-10T19:17:09.962Z,6.45
2022-09-10T19:19:41.253Z,5.75
2022-09-10T19:22:13.839Z,3.30
2022-09-10T19:25:01.262Z,2.22
2022-09-10T19:27:34.521Z,2.03
2022-09-10T19:30:06.206Z,3.50
2022-09-10T19:32:40.026Z,4.70
2022-09-10T19:35:11.967Z,3.92
2022-09-10T19:37:42.877Z,4.80
2022-09-10T19:40:15.217Z,3.10
2022-09-10T19:42:46.899Z,3.70
2022-09-10T19:45:17.929Z,6.97
2022-09-10T19:47:52.063Z,3.63
2022-09-10T19:50:23.552Z,3.75
2022-09-10T19:52:54.916Z,3.40
2022-09-10T19:55:27.289Z,2.92
2022-09-10T19:57:59.980Z,2.25
2022-09-10T20:00:46.356Z,3.28
2022-09-10T20:03:21.294Z,5.70
2022-09-10T20:05:52.412Z,3.45
2022-09-10T20:08:23.466Z,6.47
2022-09-10T20:10:54.665Z,5.13
2022-09-10T20:13:26.061Z,2.88
2022-09-10T20:15:56.991Z,3.97
2022-09-10T20:18:34.362Z,5.30
2022-09-10T20:21:14.343Z,2.85
2022-09-10T20:23:47.288Z,5.80
2022-09-10T20:26:20.176Z,5.13
2022-09-10T20:28:56.007Z,2.95
2022-09-10T20:31:28.255Z,5.25
2022-09-10T20:34:03.746Z,4.55
2022-09-10T20:36:35.667Z,6.35
2022-09-10T20:39:07.062Z,2.65
2022-09-10T20:41:40.242Z,4.03
2022-09-10T20:44:13.027Z,2.58
2022-09-10T20:46:45.365Z,6.10
2022-09-10T20:49:19.630Z,3.15
2022-09-10T20:51:50.685Z,5.80
2022-09-10T20:54:23.070Z,5.85
2022-09-10T20:56:54.246Z,4.55
2022-09-10T20:59:27.821Z,6.93
2022-09-10T21:01:59.534Z,7.50
2022-09-10T21:04:33.608Z,6.28
2022-09-10T21:07:04.564Z,6.53
2022-09-10T21:09:35.598Z,6.68
2022-09-10T21:12:08.206Z,8.98
2022-09-10T21:14:39.144Z,6.78
2022-09-10T21:17:09.961Z,6.38
2022-09-10T21:19:44.097Z,9.90
2022-09-10T21:22:15.064Z,8.40
2022-09-10T21:24:46.425Z,3.67
2022-09-10T21:27:17.170Z,5.75
2022-09-10T21:29:47.932Z,6.30
2022-09-10T21:32:19.097Z,5.78
2022-09-10T21:34:53.358Z,5.90
2022-09-10T21:37:25.617Z,7.90
2022-09-10T21:39:56.559Z,2.95
2022-09-10T21:42:27.526Z,5.25
2022-09-10T21:44:58.311Z,7.07
2022-09-10T21:47:29.066Z,4.70
2022-09-10T21:50:03.031Z,6.07
2022-09-10T21:52:33.850Z,3.95
2022-09-10T21:55:04.583Z,5.47
2022-09-10T21:57:35.555Z,6.47
2022-09-10T22:00:07.947Z,5.32
2022-09-10T22:02:45.012Z,4.20
2022-09-10T22:05:18.693Z,5.10
2022-09-10T22:07:49.704Z,3.05
2022-09-10T22:10:21.546Z,7.90
2022-09-10T22:12:52.340Z,4.70
2022-09-10T22:15:23.750Z,4.85
2022-09-10T22:17:54.499Z,7.63
2022-09-10T22:20:28.241Z,6.03
2022-09-10T22:22:59.637Z,3.30
2022-09-10T22:25:30.392Z,7.03
2022-09-10T22:28:01.261Z,5.30
2022-09-10T22:30:32.196Z,5.43
2022-09-10T22:33:03.591Z,4.90
2022-09-10T22:35:39.267Z,8.40
2022-09-10T22:38:16.835Z,5.28
2022-09-10T22:40:51.372Z,5.80
2022-09-10T22:43:22.111Z,8.48
2022-09-10T22:45:52.841Z,12.75
2022-09-10T22:48:23.975Z,6.45
2022-09-10T22:51:00.055Z,7.85
2022-09-10T22:53:30.996Z,5.75
2022-09-10T22:56:02.418Z,10.68
2022-09-10T22:58:33.462Z,8.90
2022-09-10T23:01:07.059Z,5.50
2022-09-10T23:03:38.272Z,10.93
2022-09-10T23:06:15.110Z,6.55
2022-09-10T23:11:19.361Z,7.15
2022-09-10T23:13:52.658Z,8.48
2022-09-10T23:16:26.271Z,6.53
2022-09-10T23:18:58.436Z,8.65
2022-09-10T23:21:33.896Z,7.50
2022-09-10T23:24:06.545Z,5.43
2022-09-10T23:26:37.292Z,6.75
2022-09-10T23:29:08.434Z,6.25
2022-09-10T23:31:40.975Z,5.57
2022-09-10T23:34:14.753Z,3.70
2022-09-10T23:36:50.389Z,5.28
2022-09-10T23:39:22.822Z,3.78
2022-09-10T23:41:55.268Z,4.85
2022-09-10T23:44:26.067Z,5.03
2022-09-10T23:46:57.553Z,4.15
2022-09-10T23:49:28.329Z,4.28
2022-09-10T23:52:01.799Z,6.65
2022-09-10T23:54:33.067Z,8.35
2022-09-10T23:57:04.878Z,6.25
2022-09-10T23:59:35.607Z,5.05
